Time,TemperatureF,DewpointF,PressureIn,WindDirection,WindDirectionDegrees,WindSpeedMPH,WindSpeedGustMPH,Humidity,HourlyPrecipIn,Conditions,Clouds,dailyrainin,SoftwareType,DateUTC
2013-01-15 00:03:00,34.0,31.0,-100.00,NW,320,0.0,0.0,91,0.02,,,-99.99,,2013-01-15 05:03:00,
2013-01-15 00:12:00,34.0,31.0,-100.00,SE,135,0.0,0.0,92,0.01,,,-99.99,,2013-01-15 05:12:00,
2013-01-15 00:22:00,34.0,31.0,-100.00,South,170,0.0,0.0,92,0.00,,,-99.99,,2013-01-15 05:22:00,
2013-01-15 00:33:00,34.0,31.0,-100.00,South,170,0.0,0.0,92,0.00,,,-99.99,,2013-01-15 05:33:00,
2013-01-15 00:42:00,34.0,32.0,-100.00,WNW,295,2.0,2.0,92,0.00,,,-99.99,,2013-01-15 05:42:00,
2013-01-15 00:52:00,34.0,32.0,-100.00,WNW,295,2.0,2.0,92,0.00,,,-99.99,,2013-01-15 05:52:00,
2013-01-15 01:02:00,34.0,32.0,-100.00,North,0,0.0,1.0,93,0.00,,,-99.99,,2013-01-15 06:02:00,
2013-01-15 01:12:00,34.0,31.0,-100.00,NNE,15,0.0,0.0,92,0.00,,,-99.99,,2013-01-15 06:12:00,
2013-01-15 01:22:00,34.0,32.0,-100.00,NW,315,4.0,5.0,93,0.00,,,-99.99,,2013-01-15 06:22:00,
2013-01-15 01:33:00,34.0,32.0,-100.00,NW,315,4.0,5.0,93,0.00,,,-99.99,,2013-01-15 06:33:00,
2013-01-15 01:43:00,34.0,33.0,-100.00,NNW,340,2.0,4.0,93,0.00,,,-99.99,,2013-01-15 06:43:00,
2013-01-15 01:52:00,34.0,33.0,-100.00,NNW,340,2.0,4.0,93,0.00,,,-99.99,,2013-01-15 06:52:00,
2013-01-15 02:02:00,34.0,32.0,-100.00,NNE,15,1.0,1.0,93,0.00,,,-99.99,,2013-01-15 07:02:00,
2013-01-15 02:12:00,34.0,32.0,-100.00,NNW,345,1.0,2.0,93,0.00,,,-99.99,,2013-01-15 07:12:00,
2013-01-15 02:22:00,34.0,32.0,-100.00,NNW,345,0.0,0.0,93,0.00,,,-99.99,,2013-01-15 07:22:00,
2013-01-15 02:33:00,34.0,32.0,-100.00,NNW,345,0.0,0.0,93,0.00,,,-99.99,,2013-01-15 07:33:00,
2013-01-15 02:42:00,34.0,32.0,-100.00,NW,320,2.0,2.0,93,0.00,,,-99.99,,2013-01-15 07:42:00,
2013-01-15 02:52:00,34.0,32.0,-100.00,NW,305,0.0,0.0,94,0.00,,,-99.99,,2013-01-15 07:52:00,
2013-01-15 03:02:00,34.0,32.0,-100.00,NW,305,0.0,0.0,94,0.00,,,-99.99,,2013-01-15 08:02:00,
2013-01-15 03:12:00,34.0,32.0,-100.00,North,5,0.0,0.0,94,0.00,,,-99.99,,2013-01-15 08:12:00,
2013-01-15 03:22:00,34.0,32.0,-100.00,North,0,0.0,0.0,94,0.00,,,-99.99,,2013-01-15 08:22:00,
2013-01-15 03:33:00,34.0,32.0,-100.00,North,0,0.0,0.0,94,0.00,,,-99.99,,2013-01-15 08:33:00,
2013-01-15 03:43:00,34.0,32.0,-100.00,WNW,295,0.0,0.0,94,0.00,,,-99.99,,2013-01-15 08:43:00,
2013-01-15 03:52:00,34.0,32.0,-100.00,WNW,295,0.0,0.0,94,0.00,,,-99.99,,2013-01-15 08:52:00,
2013-01-15 04:02:00,34.0,32.0,-100.00,West,265,0.0,0.0,94,0.00,,,-99.99,,2013-01-15 09:02:00,
2013-01-15 04:12:00,34.0,32.0,-100.00,NNW,345,0.0,0.0,94,0.00,,,-99.99,,2013-01-15 09:12:00,
2013-01-15 04:22:00,34.0,32.0,-100.00,SSE,155,0.0,0.0,94,0.00,,,-99.99,,2013-01-15 09:22:00,
2013-01-15 04:33:00,34.0,32.0,-100.00,SSE,155,0.0,0.0,94,0.00,,,-99.99,,2013-01-15 09:33:00,
2013-01-15 04:42:00,34.0,32.0,-100.00,NNW,330,1.0,1.0,94,0.00,,,-99.99,,2013-01-15 09:42:00,
2013-01-15 04:52:00,34.0,32.0,-100.00,NNW,330,1.0,1.0,94,0.00,,,-99.99,,2013-01-15 09:52:00,
2013-01-15 05:02:00,34.0,32.0,-100.00,West,265,0.0,0.0,94,0.00,,,-99.99,,2013-01-15 10:02:00,
2013-01-15 05:12:00,34.0,32.0,-100.00,West,270,0.0,0.0,94,0.00,,,-99.99,,2013-01-15 10:12:00,
2013-01-15 05:22:00,34.0,32.0,-100.00,NNE,20,0.0,0.0,94,0.00,,,-99.99,,2013-01-15 10:22:00,
2013-01-15 05:32:00,34.0,32.0,-100.00,NNE,20,0.0,0.0,94,0.00,,,-99.99,,2013-01-15 10:32:00,
2013-01-15 05:42:00,34.0,32.0,-100.00,NNE,20,0.0,0.0,94,0.00,,,-99.99,,2013-01-15 10:42:00,
2013-01-15 05:52:00,34.0,32.0,-100.00,NNE,20,0.0,0.0,94,0.00,,,-99.99,,2013-01-15 10:52:00,
2013-01-15 06:02:00,34.0,32.0,-100.00,NNE,20,0.0,0.0,94,0.00,,,-99.99,,2013-01-15 11:02:00,
2013-01-15 06:12:00,34.0,32.0,-100.00,NNE,20,0.0,0.0,94,0.00,,,-99.99,,2013-01-15 11:12:00,
2013-01-15 06:22:00,34.0,32.0,-100.00,SSW,205,0.0,0.0,94,0.00,,,-99.99,,2013-01-15 11:22:00,
2013-01-15 06:33:00,34.0,32.0,-100.00,SSW,205,0.0,0.0,94,0.00,,,-99.99,,2013-01-15 11:33:00,
2013-01-15 06:43:00,34.0,32.0,-100.00,West,265,0.0,0.0,94,0.00,,,-99.99,,2013-01-15 11:43:00,
2013-01-15 06:52:00,34.0,32.0,-100.00,West,265,0.0,0.0,94,0.00,,,-99.99,,2013-01-15 11:52:00,
2013-01-15 07:03:00,34.0,32.0,-100.00,NNW,335,0.0,0.0,94,0.00,,,-99.99,,2013-01-15 12:03:00,
2013-01-15 07:12:00,34.0,32.0,-100.00,NE,35,0.0,0.0,94,0.00,,,-99.99,,2013-01-15 12:12:00,
2013-01-15 07:22:00,34.0,32.0,-100.00,NNE,30,0.0,0.0,94,0.00,,,-99.99,,2013-01-15 12:22:00,
2013-01-15 07:33:00,34.0,32.0,-100.00,NNE,30,0.0,0.0,94,0.00,,,-99.99,,2013-01-15 12:33:00,
2013-01-15 07:43:00,34.0,32.0,-100.00,NNE,30,0.0,0.0,94,0.00,,,-99.99,,2013-01-15 12:43:00,
2013-01-15 07:53:00,34.0,32.0,-100.00,SSE,160,0.0,1.0,94,0.00,,,-99.99,,2013-01-15 12:53:00,
2013-01-15 08:03:00,34.0,32.0,-100.00,SSE,160,0.0,1.0,94,0.00,,,-99.99,,2013-01-15 13:03:00,
2013-01-15 08:12:00,34.0,32.0,-100.00,SSE,160,0.0,0.0,94,0.00,,,-99.99,,2013-01-15 13:12:00,
2013-01-15 08:23:00,34.0,32.0,-100.00,SSE,160,0.0,0.0,94,0.00,,,-99.99,,2013-01-15 13:23:00,
2013-01-15 08:33:00,34.0,32.0,-100.00,SSE,160,0.0,0.0,94,0.00,,,-99.99,,2013-01-15 13:33:00,
2013-01-15 08:43:00,34.0,32.0,-100.00,SE,125,0.0,0.0,94,0.00,,,-99.99,,2013-01-15 13:43:00,
2013-01-15 08:53:00,34.0,32.0,-100.00,SE,125,0.0,0.0,94,0.00,,,-99.99,,2013-01-15 13:53:00,
2013-01-15 09:03:00,34.0,32.0,-100.00,ESE,115,1.0,2.0,94,0.00,,,-99.99,,2013-01-15 14:03:00,
2013-01-15 09:13:00,34.0,32.0,-100.00,SE,125,0.0,1.0,94,0.00,,,-99.99,,2013-01-15 14:13:00,
2013-01-15 09:23:00,34.0,32.0,-100.00,ESE,120,1.0,2.0,94,0.00,,,-99.99,,2013-01-15 14:23:00,
2013-01-15 09:33:00,34.0,32.0,-100.00,ESE,120,1.0,2.0,94,0.00,,,-99.99,,2013-01-15 14:33:00,
2013-01-15 09:43:00,33.0,32.0,-100.00,ESE,110,1.0,2.0,94,0.00,,,-99.99,,2013-01-15 14:43:00,
2013-01-15 09:53:00,33.0,32.0,-100.00,SE,125,2.0,2.0,94,0.00,,,-99.99,,2013-01-15 14:53:00,
2013-01-15 10:03:00,33.0,32.0,-100.00,SE,125,2.0,2.0,94,0.00,,,-99.99,,2013-01-15 15:03:00,
2013-01-15 10:13:00,33.0,32.0,-100.00,ESE,120,2.0,3.0,94,0.00,,,-99.99,,2013-01-15 15:13:00,
2013-01-15 10:23:00,33.0,32.0,-100.00,SE,135,0.0,0.0,94,0.00,,,-99.99,,2013-01-15 15:23:00,
2013-01-15 10:33:00,33.0,32.0,-100.00,SE,135,0.0,0.0,94,0.00,,,-99.99,,2013-01-15 15:33:00,
2013-01-15 10:43:00,34.0,32.0,-100.00,SSE,165,0.0,0.0,94,0.00,,,-99.99,,2013-01-15 15:43:00,
2013-01-15 10:53:00,34.0,32.0,-100.00,East,100,1.0,2.0,94,0.00,,,-99.99,,2013-01-15 15:53:00,
2013-01-15 11:03:00,34.0,32.0,-100.00,East,100,1.0,2.0,94,0.00,,,-99.99,,2013-01-15 16:03:00,
2013-01-15 11:12:00,34.0,33.0,-100.00,NNE,25,0.0,0.0,94,0.00,,,-99.99,,2013-01-15 16:12:00,
2013-01-15 11:23:00,35.0,33.0,-100.00,ESE,115,1.0,2.0,94,0.00,,,-99.99,,2013-01-15 16:23:00,
2013-01-15 11:33:00,35.0,33.0,-100.00,ESE,115,1.0,2.0,94,0.00,,,-99.99,,2013-01-15 16:33:00,
2013-01-15 11:43:00,34.0,32.0,-100.00,East,95,2.0,3.0,94,0.00,,,-99.99,,2013-01-15 16:43:00,
2013-01-15 11:53:00,34.0,32.0,-100.00,NE,55,2.0,4.0,94,0.00,,,-99.99,,2013-01-15 16:53:00,
2013-01-15 12:03:00,34.0,32.0,-100.00,NE,55,2.0,4.0,94,0.00,,,-99.99,,2013-01-15 17:03:00,
2013-01-15 12:12:00,34.0,33.0,-100.00,SE,140,2.0,3.0,94,0.00,,,-99.99,,2013-01-15 17:12:00,
2013-01-15 12:22:00,34.0,33.0,-100.00,East,85,1.0,2.0,93,0.00,,,-99.99,,2013-01-15 17:22:00,
2013-01-15 12:33:00,34.0,33.0,-100.00,East,85,1.0,2.0,93,0.00,,,-99.99,,2013-01-15 17:33:00,
2013-01-15 12:43:00,34.0,32.0,-100.00,East,100,2.0,3.0,92,0.00,,,-99.99,,2013-01-15 17:43:00,
2013-01-15 12:53:00,35.0,32.0,-100.00,SSE,150,2.0,2.0,89,0.00,,,-99.99,,2013-01-15 17:53:00,
2013-01-15 13:03:00,35.0,32.0,-100.00,SSE,150,2.0,2.0,89,0.00,,,-99.99,,2013-01-15 18:03:00,
2013-01-15 13:13:00,36.0,32.0,-100.00,East,95,1.0,3.0,87,0.00,,,-99.99,,2013-01-15 18:13:00,
2013-01-15 13:23:00,35.0,31.0,-100.00,ENE,65,0.0,1.0,83,0.00,,,-99.99,,2013-01-15 18:23:00,
2013-01-15 13:33:00,35.0,31.0,-100.00,ENE,65,0.0,1.0,83,0.00,,,-99.99,,2013-01-15 18:33:00,
2013-01-15 13:43:00,36.0,30.0,-100.00,East,80,2.0,2.0,78,0.00,,,-99.99,,2013-01-15 18:43:00,
2013-01-15 13:53:00,36.0,29.0,-100.00,ENE,75,2.0,4.0,74,0.00,,,-99.99,,2013-01-15 18:53:00,
2013-01-15 14:03:00,36.0,29.0,-100.00,ENE,75,2.0,4.0,74,0.00,,,-99.99,,2013-01-15 19:03:00,
2013-01-15 14:13:00,36.0,28.0,-100.00,East,85,1.0,2.0,72,0.00,,,-99.99,,2013-01-15 19:13:00,
2013-01-15 14:23:00,36.0,27.0,-100.00,NNW,345,1.0,2.0,68,0.00,,,-99.99,,2013-01-15 19:23:00,
2013-01-15 14:33:00,36.0,27.0,-100.00,NNW,345,1.0,2.0,68,0.00,,,-99.99,,2013-01-15 19:33:00,
2013-01-15 14:42:00,36.0,26.0,-100.00,SE,125,0.0,1.0,67,0.00,,,-99.99,,2013-01-15 19:42:00,
2013-01-15 14:53:00,37.0,27.0,-100.00,NE,35,1.0,2.0,67,0.00,,,-99.99,,2013-01-15 19:53:00,
2013-01-15 15:03:00,37.0,27.0,-100.00,NE,35,1.0,2.0,67,0.00,,,-99.99,,2013-01-15 20:03:00,
2013-01-15 15:12:00,37.0,26.0,-100.00,West,265,1.0,4.0,66,0.00,,,-99.99,,2013-01-15 20:12:00,
2013-01-15 15:23:00,37.0,26.0,-100.00,NNW,335,2.0,3.0,66,0.00,,,-99.99,,2013-01-15 20:23:00,
2013-01-15 15:33:00,37.0,26.0,-100.00,NNW,335,2.0,3.0,66,0.00,,,-99.99,,2013-01-15 20:33:00,
2013-01-15 15:43:00,37.0,26.0,-100.00,NE,40,2.0,4.0,66,0.00,,,-99.99,,2013-01-15 20:43:00,
2013-01-15 15:52:00,36.0,25.0,-100.00,NE,45,2.0,4.0,64,0.00,,,-99.99,,2013-01-15 20:52:00,
2013-01-15 16:03:00,36.0,25.0,-100.00,NE,45,2.0,4.0,64,0.00,,,-99.99,,2013-01-15 21:03:00,
2013-01-15 16:13:00,36.0,25.0,-100.00,ENE,60,2.0,4.0,63,0.00,,,-99.99,,2013-01-15 21:13:00,
2013-01-15 16:23:00,36.0,25.0,-100.00,East,80,3.0,6.0,64,0.00,,,-99.99,,2013-01-15 21:23:00,
2013-01-15 16:33:00,36.0,25.0,-100.00,East,80,3.0,6.0,64,0.00,,,-99.99,,2013-01-15 21:33:00,
2013-01-15 16:43:00,36.0,26.0,-100.00,East,85,4.0,6.0,67,0.00,,,-99.99,,2013-01-15 21:43:00,
2013-01-15 16:52:00,36.0,26.0,-100.00,NNE,30,2.0,3.0,68,0.00,,,-99.99,,2013-01-15 21:52:00,
2013-01-15 17:03:00,36.0,26.0,-100.00,NNE,30,2.0,3.0,68,0.00,,,-99.99,,2013-01-15 22:03:00,
2013-01-15 17:12:00,36.0,26.0,-100.00,NNE,30,2.0,3.0,68,0.00,,,-99.99,,2013-01-15 22:12:00,
2013-01-15 17:23:00,35.0,26.0,-100.00,NE,35,2.0,3.0,68,0.00,,,-99.99,,2013-01-15 22:23:00,
2013-01-15 17:33:00,35.0,26.0,-100.00,NE,35,2.0,3.0,68,0.00,,,-99.99,,2013-01-15 22:33:00,
2013-01-15 17:43:00,35.0,26.0,-100.00,NE,35,5.0,6.0,68,0.00,,,-99.99,,2013-01-15 22:43:00,
2013-01-15 17:53:00,35.0,26.0,-100.00,NE,50,4.0,4.0,69,0.00,,,-99.99,,2013-01-15 22:53:00,
2013-01-15 18:03:00,35.0,26.0,-100.00,NE,50,4.0,4.0,69,0.00,,,-99.99,,2013-01-15 23:03:00,
2013-01-15 18:13:00,35.0,26.0,-100.00,East,85,5.0,6.0,71,0.00,,,-99.99,,2013-01-15 23:13:00,
2013-01-15 18:22:00,35.0,26.0,-100.00,ENE,75,5.0,7.0,72,0.00,,,-99.99,,2013-01-15 23:22:00,
2013-01-15 18:33:00,35.0,26.0,-100.00,ENE,75,5.0,7.0,72,0.00,,,-99.99,,2013-01-15 23:33:00,
2013-01-15 18:43:00,35.0,27.0,-100.00,NE,45,2.0,2.0,73,0.00,,,-99.99,,2013-01-15 23:43:00,
2013-01-15 18:53:00,35.0,27.0,-100.00,NE,45,2.0,2.0,73,0.00,,,-99.99,,2013-01-15 23:53:00,
2013-01-15 19:03:00,35.0,27.0,-100.00,North,10,4.0,4.0,74,0.00,,,-99.99,,2013-01-16 00:03:00,
2013-01-15 19:12:00,34.0,27.0,-100.00,NNE,15,3.0,4.0,75,0.00,,,-99.99,,2013-01-16 00:12:00,
2013-01-15 19:22:00,34.0,27.0,-100.00,NE,40,5.0,6.0,77,0.00,,,-99.99,,2013-01-16 00:22:00,
2013-01-15 19:33:00,34.0,27.0,-100.00,NE,40,5.0,6.0,77,0.00,,,-99.99,,2013-01-16 00:33:00,
2013-01-15 19:43:00,34.0,28.0,-100.00,NE,35,3.0,4.0,80,0.00,,,-99.99,,2013-01-16 00:43:00,
2013-01-15 19:52:00,33.0,29.0,-100.00,NNE,15,1.0,1.0,84,0.02,,,-99.99,,2013-01-16 00:52:00,
2013-01-15 20:03:00,33.0,29.0,-100.00,NNE,15,1.0,1.0,84,0.02,,,-99.99,,2013-01-16 01:03:00,
2013-01-15 20:12:00,33.0,30.0,-100.00,NNE,25,2.0,3.0,86,0.02,,,-99.99,,2013-01-16 01:12:00,
2013-01-15 20:22:00,33.0,29.0,-100.00,NE,35,0.0,0.0,87,0.05,,,-99.99,,2013-01-16 01:22:00,
2013-01-15 20:33:00,33.0,29.0,-100.00,NE,35,0.0,0.0,87,0.05,,,-99.99,,2013-01-16 01:33:00,
2013-01-15 20:42:00,33.0,30.0,-100.00,ENE,75,0.0,1.0,88,0.03,,,-99.99,,2013-01-16 01:42:00,
2013-01-15 20:52:00,33.0,30.0,-100.00,NNE,20,2.0,3.0,89,0.02,,,-99.99,,2013-01-16 01:52:00,
2013-01-15 21:03:00,33.0,30.0,-100.00,NNE,20,2.0,3.0,89,0.02,,,-99.99,,2013-01-16 02:03:00,
2013-01-15 21:12:00,33.0,30.0,-100.00,NNE,20,2.0,3.0,90,0.04,,,-99.99,,2013-01-16 02:12:00,
2013-01-15 21:22:00,33.0,30.0,-100.00,NNE,30,2.0,2.0,91,0.08,,,-99.99,,2013-01-16 02:22:00,
2013-01-15 21:33:00,33.0,30.0,-100.00,NNE,30,2.0,2.0,91,0.08,,,-99.99,,2013-01-16 02:33:00,
2013-01-15 21:43:00,33.0,30.0,-100.00,NW,325,0.0,1.0,91,0.05,,,-99.99,,2013-01-16 02:43:00,
2013-01-15 21:52:00,33.0,31.0,-100.00,East,85,2.0,2.0,92,0.09,,,-99.99,,2013-01-16 02:52:00,
2013-01-15 22:03:00,33.0,31.0,-100.00,East,85,2.0,2.0,92,0.09,,,-99.99,,2013-01-16 03:03:00,
2013-01-15 22:12:00,32.0,30.0,-100.00,SE,130,1.0,2.0,92,0.07,,,-99.99,,2013-01-16 03:12:00,
2013-01-15 22:22:00,32.0,30.0,-100.00,East,100,2.0,3.0,92,0.07,,,-99.99,,2013-01-16 03:22:00,
2013-01-15 22:33:00,32.0,30.0,-100.00,East,100,2.0,3.0,92,0.07,,,-99.99,,2013-01-16 03:33:00,
2013-01-15 22:43:00,33.0,31.0,-100.00,ENE,70,0.0,2.0,93,0.05,,,-99.99,,2013-01-16 03:43:00,
2013-01-15 22:52:00,32.0,30.0,-100.00,East,95,2.0,3.0,93,0.02,,,-99.99,,2013-01-16 03:52:00,
2013-01-15 23:02:00,32.0,30.0,-100.00,East,95,2.0,3.0,93,0.02,,,-99.99,,2013-01-16 04:02:00,
2013-01-15 23:12:00,32.0,30.0,-100.00,East,95,4.0,4.0,93,0.03,,,-99.99,,2013-01-16 04:12:00,
2013-01-15 23:22:00,32.0,30.0,-100.00,East,95,3.0,4.0,93,0.04,,,-99.99,,2013-01-16 04:22:00,
2013-01-15 23:33:00,32.0,30.0,-100.00,East,95,3.0,4.0,93,0.04,,,-99.99,,2013-01-16 04:33:00,
2013-01-15 23:42:00,32.0,30.0,-100.00,East,95,3.0,5.0,93,0.06,,,-99.99,,2013-01-16 04:42:00,
2013-01-15 23:52:00,32.0,30.0,-100.00,East,95,3.0,5.0,93,0.06,,,-99.99,,2013-01-16 04:52:00,